Pagrindinis puslapis
METAR-TAF:

METAR-TAF

Oro uostai :

Kisarazu, Japonija

platuma: 35-24N, ilguma: 139-55E, Aukštis: 3 m

Dabartinis oras

Ataskaita buvo paskelbta 3 valandos ir 41 minutes, ne 06:12 UTC
Vėjas 10 kt iš Pietų/Pietvakarių
Temperatūra 14°C
Drėgmė 47%
Slėgis 1019 hPa
Matomumas 10 km arba daugiau
Mažai debesys ne aukštis 3000 ft

METAR: RJTK 240612Z 21010KT 9999 FEW030 14/03 Q1019 RMK 1CU030 A3011

Laikas: 18:53 (09:53 UTC)


TAF: trūkstamas

Orai ataskaitas ir orų prognozės (METAR, TAF).

turimą stotys yra geltonos ir raudonos taškus žemėlapyje.

Perkelti pele per norėdami pamatyti stoties vardą.

Tada spustelėkite, norėdami matyti oro stebėjimo ir prognozės.

Norėdami pakeisti žemėlapį: spustelėkite ant žalios mygtukų su juodo kryžiaus žemyn,; žalią mygtuką su brūkšneliu, jei norite nutolinti; arba žalių rodyklių gretimoms žemėlapius.


METAR-TAF: